Time;durP1;ratioP1;P1;durP2;ratioP2;P2;SDS_P1;SDS_P2;PMS_P1;PMS_P2;Temp;Humidity;BMP_temperature;BMP_pressure;BME280_temperature;BME280_humidity;BME280_pressure;Samples;Min_cycle;Max_cycle;Signal;HPM_P1;HPM_P2
2023/08/27 00:01:33;;;;;;;9.43;8.60;;;18.40;99.90;;;;;;5104354;27;20042;-85
2023/08/27 00:03:59;;;;;;;9.10;8.20;;;18.20;99.90;;;;;;5097466;27;20039;-85
2023/08/27 00:06:25;;;;;;;9.40;8.43;;;18.40;99.90;;;;;;5075128;28;20047;-83
2023/08/27 00:08:51;;;;;;;8.43;7.68;;;18.20;99.90;;;;;;5065508;28;20028;-86
2023/08/27 00:11:17;;;;;;;10.45;9.25;;;18.10;99.90;;;;;;5095308;28;20092;-86
2023/08/27 00:13:43;;;;;;;8.52;7.72;;;18.20;99.90;;;;;;5075269;28;20127;-86
2023/08/27 00:16:09;;;;;;;9.57;8.57;;;18.20;99.90;;;;;;5082805;28;20536;-83
2023/08/27 00:18:34;;;;;;;9.75;8.85;;;18.00;99.90;;;;;;5078091;28;20048;-87
2023/08/27 00:21:09;;;;;;;9.43;8.57;;;18.20;99.90;;;;;;5076255;28;20070;-84
2023/08/27 00:23:39;;;;;;;9.18;8.27;;;17.90;99.90;;;;;;5058139;28;20052;-84
2023/08/27 00:26:04;;;;;;;8.30;7.50;;;17.80;99.90;;;;;;5074835;27;20043;-85
2023/08/27 00:28:30;;;;;;;9.00;8.10;;;17.80;99.90;;;;;;5097331;27;20042;-86
2023/08/27 00:31:03;;;;;;;9.63;7.97;;;17.80;99.90;;;;;;5092847;28;20035;-85
2023/08/27 00:33:32;;;;;;;8.07;7.28;;;17.90;99.90;;;;;;5097743;28;20039;-85
2023/08/27 00:35:58;;;;;;;8.75;7.85;;;17.90;99.90;;;;;;5083372;27;20043;-85
2023/08/27 00:38:23;;;;;;;11.77;9.52;;;17.70;99.90;;;;;;5096767;27;20046;-86
2023/08/27 00:41:10;;;;;;;10.00;8.52;;;17.90;99.90;;;;;;5102868;28;20036;-84
2023/08/27 00:43:36;;;;;;;8.75;7.85;;;17.80;99.90;;;;;;5093352;28;20050;-85
2023/08/27 00:46:06;;;;;;;11.27;8.32;;;17.70;99.90;;;;;;5106394;27;20483;-85
2023/08/27 00:48:32;;;;;;;9.00;8.10;;;17.60;99.90;;;;;;5078363;28;20046;-87
2023/08/27 00:50:58;;;;;;;9.57;8.35;;;17.50;99.90;;;;;;5073768;28;20036;-86
2023/08/27 00:53:24;;;;;;;9.98;9.07;;;17.60;99.90;;;;;;5070996;28;20040;-82
2023/08/27 00:55:53;;;;;;;9.93;8.93;;;17.50;99.90;;;;;;5077014;28;20056;-83
2023/08/27 00:58:21;;;;;;;9.55;8.60;;;17.40;99.90;;;;;;5092899;28;20039;-84
2023/08/27 01:00:51;;;;;;;8.35;7.50;;;17.40;99.90;;;;;;5104289;28;20040;-85
2023/08/27 01:03:17;;;;;;;8.93;8.02;;;17.50;99.90;;;;;;5080570;27;20043;-84
2023/08/27 01:05:44;;;;;;;9.50;8.57;;;17.60;99.90;;;;;;5070922;28;20055;-85
2023/08/27 01:08:45;;;;;;;9.73;8.68;;;17.40;99.90;;;;;;5073306;28;20043;-84
2023/08/27 01:11:24;;;;;;;9.88;8.90;;;17.70;99.90;;;;;;5100635;28;20043;-84
2023/08/27 01:14:03;;;;;;;10.13;9.13;;;17.70;99.90;;;;;;5072949;28;20032;-86
2023/08/27 01:16:30;;;;;;;10.90;9.80;;;17.70;99.90;;;;;;5072904;28;20490;-85
2023/08/27 01:19:00;;;;;;;10.88;9.70;;;17.50;99.90;;;;;;5064544;28;20050;-83
2023/08/27 01:21:27;;;;;;;9.10;8.30;;;17.20;99.90;;;;;;5072644;28;20048;-83
2023/08/27 01:23:53;;;;;;;10.60;9.50;;;17.60;99.90;;;;;;5087782;28;20043;-84
2023/08/27 01:26:36;;;;;;;10.35;9.35;;;17.60;99.90;;;;;;5083329;28;20032;-85
2023/08/27 01:29:23;;;;;;;9.50;8.60;;;17.60;99.90;;;;;;5072901;28;20522;-85
2023/08/27 01:31:59;;;;;;;9.48;8.48;;;17.60;99.90;;;;;;5089375;28;20158;-85
2023/08/27 01:34:26;;;;;;;9.43;8.43;;;17.40;99.90;;;;;;5092551;28;20035;-85
2023/08/27 01:36:52;;;;;;;10.80;9.77;;;17.30;99.90;;;;;;5054481;28;20408;-84
2023/08/27 01:39:18;;;;;;;9.50;8.60;;;17.50;99.90;;;;;;5072985;28;20059;-86
2023/08/27 01:41:45;;;;;;;10.23;9.23;;;17.40;99.90;;;;;;5096660;28;20060;-85
2023/08/27 01:44:11;;;;;;;10.70;9.68;;;17.30;99.90;;;;;;5108834;27;20154;-84
2023/08/27 01:46:37;;;;;;;9.63;8.73;;;17.40;99.90;;;;;;5104687;28;22100;-85
2023/08/27 01:49:04;;;;;;;11.60;9.55;;;17.30;99.90;;;;;;5054873;28;20130;-85
2023/08/27 01:51:36;;;;;;;10.35;9.30;;;17.40;99.90;;;;;;5072340;28;20035;-86
2023/08/27 01:54:02;;;;;;;9.77;8.90;;;17.40;99.90;;;;;;5092259;28;20387;-85
2023/08/27 01:56:29;;;;;;;13.35;9.18;;;17.50;99.90;;;;;;5091519;28;20058;-86
2023/08/27 01:58:55;;;;;;;14.07;9.35;;;17.40;99.90;;;;;;5078491;28;20418;-85
2023/08/27 02:01:33;;;;;;;10.20;9.20;;;17.30;99.90;;;;;;5070033;28;20062;-85
2023/08/27 02:03:59;;;;;;;10.50;9.55;;;17.20;99.90;;;;;;5084199;28;20395;-84
2023/08/27 02:06:24;;;;;;;9.45;8.55;;;17.30;99.90;;;;;;5087111;28;20044;-84
2023/08/27 02:08:50;;;;;;;10.15;9.15;;;17.40;99.90;;;;;;5095421;28;20096;-85
2023/08/27 02:11:19;;;;;;;9.82;8.93;;;17.50;99.90;;;;;;5072330;28;20078;-84
2023/08/27 02:13:45;;;;;;;9.98;8.73;;;17.60;99.90;;;;;;5089760;28;20115;-86
2023/08/27 02:16:11;;;;;;;10.63;9.50;;;17.50;99.90;;;;;;5113176;28;20143;-82
2023/08/27 02:18:43;;;;;;;9.48;8.48;;;17.40;99.90;;;;;;5113362;28;20043;-84
2023/08/27 02:21:08;;;;;;;11.23;8.95;;;17.40;99.90;;;;;;5096769;28;20126;-85
2023/08/27 02:23:35;;;;;;;9.95;8.98;;;17.40;99.90;;;;;;5092535;28;20119;-85
2023/08/27 02:26:01;;;;;;;10.30;7.47;;;16.50;99.90;;;;;;5077096;28;20059;-87
2023/08/27 02:28:27;;;;;;;12.15;9.13;;;17.40;99.90;;;;;;5094478;28;20400;-88
2023/08/27 02:30:56;;;;;;;9.60;8.63;;;17.30;99.90;;;;;;5076815;28;20040;-86
2023/08/27 02:33:22;;;;;;;10.65;9.65;;;17.30;99.90;;;;;;5090546;28;20679;-85
2023/08/27 02:35:48;;;;;;;16.08;10.15;;;17.50;99.90;;;;;;5102131;28;20043;-84
2023/08/27 02:38:14;;;;;;;9.60;8.70;;;17.40;99.90;;;;;;5095429;28;20410;-85
2023/08/27 02:40:40;;;;;;;9.82;8.82;;;17.30;99.90;;;;;;5071824;28;20056;-83
2023/08/27 02:43:07;;;;;;;11.10;9.35;;;17.40;99.90;;;;;;5087560;28;20043;-85
2023/08/27 02:45:34;;;;;;;9.70;8.70;;;17.30;99.90;;;;;;5107496;28;20040;-87
2023/08/27 02:48:00;;;;;;;13.27;10.38;;;17.20;99.90;;;;;;5117386;27;20039;-86
2023/08/27 02:50:25;;;;;;;13.18;10.27;;;17.40;99.90;;;;;;5117743;27;20364;-84
2023/08/27 02:52:51;;;;;;;9.82;8.90;;;17.30;99.90;;;;;;5097464;27;20043;-83
2023/08/27 02:55:17;;;;;;;16.13;11.20;;;17.40;99.90;;;;;;5093460;28;20032;-83
2023/08/27 02:57:48;;;;;;;13.02;10.93;;;17.40;99.90;;;;;;5129317;27;20047;-83
2023/08/27 03:00:17;;;;;;;10.25;9.25;;;17.50;99.90;;;;;;5116787;27;20039;-86
2023/08/27 03:02:43;;;;;;;12.32;11.13;;;17.50;99.90;;;;;;5115419;27;20107;-84
2023/08/27 03:06:07;;;;;;;13.02;11.75;;;17.40;99.90;;;;;;5082765;27;20035;-83
2023/08/27 03:08:13;;;;;;;14.20;11.53;;;17.30;99.90;;;;;;5122296;27;20055;-82
2023/08/27 03:10:53;;;;;;;11.32;9.43;;;17.50;99.90;;;;;;5089843;28;20171;-83
2023/08/27 03:13:19;;;;;;;14.23;11.38;;;17.60;99.90;;;;;;5084937;27;20039;-82
2023/08/27 03:15:45;;;;;;;12.80;10.88;;;17.40;99.90;;;;;;5079344;27;20039;-83
2023/08/27 03:18:11;;;;;;;11.65;10.40;;;17.40;99.90;;;;;;5131982;27;20039;-82
2023/08/27 03:20:39;;;;;;;10.30;9.30;;;17.60;99.90;;;;;;5132942;27;20398;-80
2023/08/27 03:23:06;;;;;;;11.43;9.68;;;17.20;99.90;;;;;;5110222;28;20036;-87
2023/08/27 03:25:33;;;;;;;12.10;10.85;;;17.70;99.90;;;;;;5113540;27;20043;-84
2023/08/27 03:27:59;;;;;;;12.80;11.50;;;17.30;99.90;;;;;;5096239;27;20057;-85
2023/08/27 03:30:35;;;;;;;11.68;10.48;;;17.60;99.90;;;;;;5114699;27;20067;-82
2023/08/27 03:33:04;;;;;;;12.30;11.10;;;17.10;99.90;;;;;;5114999;27;20063;-83
2023/08/27 03:35:41;;;;;;;14.88;10.95;;;17.30;99.90;;;;;;5115407;27;20054;-84
2023/08/27 03:38:07;;;;;;;12.23;10.98;;;17.60;99.90;;;;;;5078197;28;20082;-86
2023/08/27 03:40:33;;;;;;;11.88;10.65;;;17.30;99.90;;;;;;5130842;27;20078;-86
2023/08/27 03:42:59;;;;;;;12.57;11.27;;;17.50;99.90;;;;;;5092189;27;20084;-83
2023/08/27 03:45:24;;;;;;;9.73;8.65;;;17.30;99.90;;;;;;5128255;27;20039;-83
2023/08/27 03:47:50;;;;;;;13.13;11.60;;;17.30;99.90;;;;;;5108582;28;20056;-83
2023/08/27 03:50:16;;;;;;;14.30;10.57;;;17.40;99.90;;;;;;5094097;28;20047;-83
2023/08/27 03:52:41;;;;;;;11.57;10.07;;;17.50;99.90;;;;;;5100568;27;20043;-83
2023/08/27 03:55:07;;;;;;;13.30;10.38;;;17.70;99.90;;;;;;5076479;28;20088;-82
2023/08/27 03:57:33;;;;;;;13.50;11.27;;;17.40;99.90;;;;;;5088183;28;20653;-77
2023/08/27 04:00:06;;;;;;;11.48;9.60;;;17.50;99.90;;;;;;5090698;28;20050;-84
2023/08/27 04:02:31;;;;;;;11.10;9.95;;;17.60;99.90;;;;;;5093711;28;20043;-83
2023/08/27 04:04:57;;;;;;;12.20;10.98;;;17.70;99.90;;;;;;5089331;27;20126;-82
2023/08/27 04:07:29;;;;;;;11.15;10.05;;;17.60;99.90;;;;;;5112928;27;20455;-84
2023/08/27 04:09:54;;;;;;;12.38;10.85;;;17.60;99.90;;;;;;5100021;28;20039;-83
2023/08/27 04:12:20;;;;;;;13.02;11.23;;;17.70;99.90;;;;;;5092017;27;20479;-82
2023/08/27 04:14:49;;;;;;;13.95;10.38;;;17.80;99.90;;;;;;5090909;28;20100;-83
2023/08/27 04:17:14;;;;;;;9.43;8.52;;;17.70;99.90;;;;;;5091481;28;20063;-80
2023/08/27 04:19:40;;;;;;;10.48;9.48;;;17.60;99.90;;;;;;5065882;27;20078;-83
2023/08/27 04:22:06;;;;;;;10.95;9.85;;;17.50;99.90;;;;;;5048936;28;20101;-82
2023/08/27 04:24:33;;;;;;;10.68;9.65;;;17.70;99.90;;;;;;5103759;28;20578;-83
2023/08/27 04:26:58;;;;;;;10.73;9.73;;;17.40;99.90;;;;;;5109532;28;20059;-85
2023/08/27 04:29:27;;;;;;;12.93;11.15;;;17.90;99.90;;;;;;5099375;28;20074;-83
2023/08/27 04:31:53;;;;;;;10.85;9.38;;;17.50;99.90;;;;;;5080943;28;20032;-82
2023/08/27 04:34:19;;;;;;;9.10;7.93;;;17.70;99.90;;;;;;5089181;27;20031;-83
2023/08/27 04:36:52;;;;;;;11.90;10.40;;;17.30;99.90;;;;;;5084627;28;20404;-83
2023/08/27 04:39:17;;;;;;;9.93;8.93;;;17.60;99.90;;;;;;5105293;28;20075;-83
2023/08/27 04:41:43;;;;;;;11.55;10.05;;;17.30;99.90;;;;;;5058216;28;20082;-82
2023/08/27 04:44:09;;;;;;;10.75;9.75;;;17.50;99.90;;;;;;5091929;28;20090;-83
2023/08/27 04:46:45;;;;;;;12.40;10.27;;;17.60;99.90;;;;;;5097927;27;20051;-85
2023/08/27 04:49:22;;;;;;;11.02;9.93;;;17.50;99.90;;;;;;5073726;28;20044;-85
2023/08/27 04:51:49;;;;;;;12.15;10.85;;;17.30;99.90;;;;;;5100176;27;20399;-84
2023/08/27 04:54:14;;;;;;;11.73;10.52;;;17.40;99.90;;;;;;5078962;28;20090;-83
2023/08/27 04:56:40;;;;;;;11.23;10.05;;;17.60;99.90;;;;;;5115618;27;20047;-82
2023/08/27 04:59:07;;;;;;;11.32;10.13;;;17.60;99.90;;;;;;5090109;27;20054;-82
2023/08/27 05:01:33;;;;;;;10.88;9.75;;;17.40;99.90;;;;;;5102593;28;20054;-84
2023/08/27 05:04:01;;;;;;;12.05;10.85;;;17.50;99.90;;;;;;5062113;28;20040;-83
2023/08/27 05:06:27;;;;;;;10.30;9.23;;;17.50;99.90;;;;;;5070720;28;20044;-85
2023/08/27 05:09:01;;;;;;;9.95;8.95;;;17.60;99.90;;;;;;5091615;28;20053;-86
2023/08/27 05:11:27;;;;;;;10.70;9.60;;;17.30;99.90;;;;;;5074657;28;20085;-85
2023/08/27 05:13:53;;;;;;;10.80;9.70;;;17.40;99.90;;;;;;5066815;28;20293;-83
2023/08/27 05:16:19;;;;;;;10.02;9.02;;;17.10;99.90;;;;;;5092475;28;20046;-83
2023/08/27 05:18:48;;;;;;;8.07;7.28;;;17.30;99.90;;;;;;5081605;28;20124;-83
2023/08/27 05:21:16;;;;;;;10.00;9.00;;;17.40;99.90;;;;;;5071716;28;20039;-83
2023/08/27 05:23:42;;;;;;;10.07;9.05;;;17.40;99.90;;;;;;5089493;28;20047;-85
2023/08/27 05:26:11;;;;;;;11.60;10.20;;;17.50;99.90;;;;;;5053738;28;20058;-84
2023/08/27 05:28:37;;;;;;;10.40;9.30;;;17.20;99.90;;;;;;5075586;28;20101;-84
2023/08/27 05:31:05;;;;;;;10.65;9.68;;;17.40;99.90;;;;;;5087445;28;20052;-83
2023/08/27 05:33:44;;;;;;;10.40;9.25;;;17.40;99.90;;;;;;5054300;28;20040;-80
2023/08/27 05:36:20;;;;;;;8.95;8.05;;;17.50;99.90;;;;;;5087174;28;20468;-83
2023/08/27 05:38:47;;;;;;;9.98;8.90;;;17.60;99.90;;;;;;5095947;28;20054;-85
2023/08/27 05:41:13;;;;;;;9.65;8.65;;;17.50;99.90;;;;;;5089286;28;20047;-80
2023/08/27 05:43:42;;;;;;;11.38;9.98;;;17.60;99.90;;;;;;5078617;28;20047;-84
2023/08/27 05:46:08;;;;;;;10.77;9.20;;;17.40;99.90;;;;;;5075892;27;20032;-86
2023/08/27 05:48:34;;;;;;;9.68;8.68;;;17.70;99.90;;;;;;5115555;27;20309;-82
2023/08/27 05:51:00;;;;;;;10.80;9.70;;;17.80;99.90;;;;;;5098449;27;20106;-82
2023/08/27 05:53:26;;;;;;;7.82;7.03;;;17.70;99.90;;;;;;5094364;28;20035;-84
2023/08/27 05:55:52;;;;;;;9.38;8.48;;;18.00;99.90;;;;;;5122098;27;20406;-84
2023/08/27 05:58:18;;;;;;;9.50;8.60;;;18.20;99.90;;;;;;5114771;27;20039;-83
2023/08/27 06:00:43;;;;;;;9.52;8.63;;;18.10;99.90;;;;;;5111485;27;20059;-84
2023/08/27 06:03:10;;;;;;;10.75;9.20;;;18.30;99.90;;;;;;5125967;27;20067;-83
2023/08/27 06:06:00;;;;;;;10.15;8.73;;;18.40;99.90;;;;;;5113977;27;20110;-81
2023/08/27 06:08:44;;;;;;;8.38;7.57;;;18.30;99.90;;;;;;5098595;27;20046;-81
2023/08/27 06:11:12;;;;;;;9.05;8.20;;;18.30;99.90;;;;;;5126173;27;20458;-82
2023/08/27 06:13:38;;;;;;;9.50;7.93;;;18.60;99.90;;;;;;5112511;27;20402;-82
2023/08/27 06:16:03;;;;;;;8.05;6.75;;;18.90;99.90;;;;;;5092848;27;20045;-82
2023/08/27 06:18:29;;;;;;;8.00;5.88;;;18.80;99.90;;;;;;5093999;27;20039;-83
2023/08/27 06:21:01;;;;;;;9.40;8.20;;;18.60;99.90;;;;;;5115655;27;20035;-84
2023/08/27 06:23:27;;;;;;;8.27;7.47;;;18.50;99.90;;;;;;5094714;27;20435;-85
2023/08/27 06:25:52;;;;;;;9.30;7.63;;;18.70;99.90;;;;;;5101057;27;20078;-85
2023/08/27 06:28:29;;;;;;;7.97;6.88;;;18.60;99.90;;;;;;5117267;27;20041;-85
2023/08/27 06:30:54;;;;;;;7.90;7.10;;;18.70;99.90;;;;;;5118017;27;20030;-83
2023/08/27 06:33:20;;;;;;;9.07;7.70;;;18.60;99.90;;;;;;5113223;27;20118;-83
2023/08/27 06:35:46;;;;;;;11.05;8.07;;;18.90;99.90;;;;;;5094085;27;20344;-86
2023/08/27 06:38:11;;;;;;;8.70;7.90;;;18.70;99.90;;;;;;5080965;27;20043;-84
2023/08/27 06:40:37;;;;;;;8.75;7.93;;;18.90;99.90;;;;;;5108158;27;20046;-85
2023/08/27 06:43:03;;;;;;;8.63;7.72;;;18.90;99.90;;;;;;5117410;27;20050;-84
2023/08/27 06:45:29;;;;;;;8.02;6.72;;;18.60;99.90;;;;;;5099279;27;20070;-84
2023/08/27 06:47:55;;;;;;;8.75;6.68;;;18.60;99.90;;;;;;5114384;27;20051;-85
2023/08/27 06:50:22;;;;;;;8.20;7.35;;;18.60;99.90;;;;;;5073614;28;20031;-86
2023/08/27 06:52:48;;;;;;;9.23;7.03;;;18.90;99.90;;;;;;5099014;27;20459;-81
2023/08/27 06:55:17;;;;;;;7.05;6.35;;;18.50;99.90;;;;;;5113698;27;20041;-82
2023/08/27 06:57:48;;;;;;;7.40;6.03;;;18.50;99.90;;;;;;5098792;27;20042;-83
2023/08/27 07:00:14;;;;;;;7.63;6.43;;;18.70;99.90;;;;;;5112430;27;20039;-84
2023/08/27 07:02:41;;;;;;;9.80;6.60;;;18.60;99.90;;;;;;5098845;27;20043;-82
2023/08/27 07:05:10;;;;;;;7.07;6.15;;;18.40;99.90;;;;;;5114735;27;20031;-83
2023/08/27 07:07:37;;;;;;;7.97;6.32;;;18.60;99.90;;;;;;5132332;27;20378;-90
2023/08/27 07:10:04;;;;;;;7.88;6.30;;;18.40;99.90;;;;;;5114446;27;20554;-84
2023/08/27 07:12:33;;;;;;;8.30;6.03;;;18.60;99.90;;;;;;5112394;27;20046;-83
2023/08/27 07:15:00;;;;;;;8.23;6.15;;;18.70;99.90;;;;;;5114559;27;20031;-85
2023/08/27 07:17:26;;;;;;;7.97;6.40;;;18.60;99.90;;;;;;5114655;27;20487;-82
2023/08/27 07:19:51;;;;;;;9.50;6.78;;;18.40;99.90;;;;;;5094979;27;20081;-82
2023/08/27 07:22:17;;;;;;;5.95;5.35;;;18.60;99.90;;;;;;5074360;28;20070;-83
2023/08/27 07:24:43;;;;;;;7.15;5.90;;;18.40;99.90;;;;;;5106505;27;20035;-86
2023/08/27 07:27:09;;;;;;;7.28;5.78;;;18.90;99.90;;;;;;5127582;27;20067;-84
2023/08/27 07:29:36;;;;;;;6.28;5.15;;;18.40;99.90;;;;;;5090867;27;20071;-83
2023/08/27 07:32:03;;;;;;;5.53;4.90;;;18.50;99.90;;;;;;5112118;27;20039;-83
2023/08/27 07:34:30;;;;;;;4.95;3.67;;;18.40;99.90;;;;;;5114877;27;20087;-85
2023/08/27 07:36:56;;;;;;;5.50;3.67;;;18.70;99.90;;;;;;5091249;28;20051;-84
2023/08/27 07:39:31;;;;;;;4.95;4.00;;;18.30;99.90;;;;;;5127046;27;20046;-84
2023/08/27 07:41:57;;;;;;;3.53;3.22;;;18.70;99.90;;;;;;5122182;27;20340;-85
2023/08/27 07:44:23;;;;;;;3.65;3.30;;;18.40;99.90;;;;;;5097434;27;20039;-83
2023/08/27 07:46:49;;;;;;;5.68;3.40;;;18.50;99.90;;;;;;5130586;27;20107;-88
2023/08/27 07:49:15;;;;;;;3.30;2.78;;;18.80;99.90;;;;;;5110885;28;20032;-84
2023/08/27 07:51:40;;;;;;;5.07;3.67;;;18.80;99.90;;;;;;5097363;27;20043;-83
2023/08/27 07:54:06;;;;;;;3.45;2.50;;;18.80;99.90;;;;;;5114469;27;20046;-83
2023/08/27 07:56:32;;;;;;;5.63;3.15;;;18.80;99.90;;;;;;5110408;27;20106;-77
2023/08/27 07:58:57;;;;;;;5.60;3.50;;;18.70;99.90;;;;;;5111300;27;20038;-81
2023/08/27 08:01:23;;;;;;;3.58;3.17;;;18.80;99.90;;;;;;5112880;27;20116;-78
2023/08/27 08:03:52;;;;;;;4.45;3.15;;;18.70;99.90;;;;;;5090050;27;20375;-83
2023/08/27 08:06:18;;;;;;;4.88;3.20;;;18.60;99.90;;;;;;5092583;28;20081;-78
2023/08/27 08:08:44;;;;;;;4.15;3.47;;;18.70;99.90;;;;;;5104573;27;20130;-81
2023/08/27 08:11:09;;;;;;;5.25;3.30;;;18.90;99.90;;;;;;5094877;27;20760;-83
2023/08/27 08:13:36;;;;;;;3.42;2.88;;;19.10;99.90;;;;;;5093150;27;20095;-79
2023/08/27 08:16:02;;;;;;;3.42;2.80;;;18.80;99.90;;;;;;5112103;27;20143;-78
2023/08/27 08:18:28;;;;;;;2.80;2.30;;;18.80;99.90;;;;;;5130031;27;20520;-78
2023/08/27 08:20:56;;;;;;;3.22;2.67;;;19.20;99.90;;;;;;5112837;27;20615;-77
2023/08/27 08:23:22;;;;;;;7.90;2.85;;;19.20;99.90;;;;;;5090787;28;20035;-78
2023/08/27 08:25:51;;;;;;;2.97;2.67;;;19.30;99.90;;;;;;5109741;27;20039;-78
2023/08/27 08:28:17;;;;;;;2.95;2.60;;;19.20;99.90;;;;;;5106122;27;20126;-78
2023/08/27 08:30:48;;;;;;;3.50;2.40;;;19.50;99.90;;;;;;5126473;27;20411;-78
2023/08/27 08:33:17;;;;;;;3.85;2.40;;;19.50;99.90;;;;;;5109408;27;20054;-77
2023/08/27 08:35:44;;;;;;;3.53;2.65;;;19.70;99.90;;;;;;5130073;27;20431;-77
2023/08/27 08:38:10;;;;;;;3.00;2.35;;;19.70;99.90;;;;;;5111932;27;20256;-77
2023/08/27 08:40:45;;;;;;;4.32;2.80;;;20.00;99.90;;;;;;5112703;27;20050;-77
2023/08/27 08:43:17;;;;;;;3.85;2.83;;;19.80;99.90;;;;;;5110341;27;20039;-77
2023/08/27 08:46:06;;;;;;;3.13;2.80;;;19.90;99.90;;;;;;5111507;27;20043;-77
2023/08/27 08:48:44;;;;;;;8.90;2.88;;;20.10;99.90;;;;;;5106913;27;20047;-80
2023/08/27 08:51:12;;;;;;;6.00;3.42;;;20.10;99.90;;;;;;5126067;27;20031;-79
2023/08/27 08:53:50;;;;;;;3.55;3.25;;;20.20;99.90;;;;;;5129598;27;20054;-79
2023/08/27 08:56:27;;;;;;;7.45;3.92;;;20.50;99.90;;;;;;5111556;27;20431;-79
2023/08/27 08:58:56;;;;;;;5.57;3.63;;;20.50;99.90;;;;;;5126778;27;20103;-79
2023/08/27 09:01:23;;;;;;;4.22;2.88;;;20.50;99.90;;;;;;5098163;27;20043;-80
2023/08/27 09:03:50;;;;;;;3.70;3.13;;;20.60;99.90;;;;;;5101296;27;20036;-77
2023/08/27 09:06:18;;;;;;;4.35;3.05;;;20.70;99.90;;;;;;5091005;27;20139;-77
2023/08/27 09:08:45;;;;;;;4.55;3.40;;;20.70;99.90;;;;;;5111336;27;20039;-78
2023/08/27 09:11:12;;;;;;;3.30;2.47;;;21.00;99.90;;;;;;5127059;27;20088;-77
2023/08/27 09:13:39;;;;;;;2.90;2.40;;;21.00;99.90;;;;;;5109068;27;20201;-80
2023/08/27 09:16:08;;;;;;;2.80;2.60;;;21.00;99.90;;;;;;5126405;27;20035;-80
2023/08/27 09:18:34;;;;;;;4.45;3.00;;;21.40;99.90;;;;;;5110895;27;20039;-80
2023/08/27 09:21:00;;;;;;;3.65;2.40;;;21.20;99.90;;;;;;5108858;27;20066;-80
2023/08/27 09:23:27;;;;;;;3.75;2.40;;;21.30;99.90;;;;;;5125760;27;20061;-80
2023/08/27 09:25:54;;;;;;;3.20;2.45;;;21.50;99.90;;;;;;5125705;27;20096;-80
2023/08/27 09:28:20;;;;;;;2.20;2.00;;;21.70;99.90;;;;;;5093350;27;20043;-80
2023/08/27 09:30:46;;;;;;;3.65;2.08;;;21.90;99.90;;;;;;5105698;27;20037;-80
2023/08/27 09:33:12;;;;;;;4.18;2.40;;;22.40;99.90;;;;;;5089170;28;20031;-81
2023/08/27 09:35:41;;;;;;;4.88;2.42;;;22.20;99.90;;;;;;5110577;27;20070;-80
2023/08/27 09:38:11;;;;;;;4.50;2.80;;;22.10;99.90;;;;;;5123046;27;20046;-81
2023/08/27 09:40:37;;;;;;;2.67;1.98;;;22.30;99.90;;;;;;5108051;27;20120;-81
2023/08/27 09:43:08;;;;;;;2.97;2.20;;;22.30;99.90;;;;;;5110554;27;20046;-80
2023/08/27 09:45:38;;;;;;;2.58;1.90;;;22.50;99.90;;;;;;5127451;27;20118;-81
2023/08/27 09:48:04;;;;;;;4.03;2.28;;;22.60;99.90;;;;;;5110590;27;20043;-81
2023/08/27 09:50:31;;;;;;;2.58;1.83;;;23.00;99.90;;;;;;5109589;27;20074;-79
2023/08/27 09:53:08;;;;;;;2.50;1.95;;;23.20;99.90;;;;;;5127569;27;20034;-79
2023/08/27 09:55:34;;;;;;;3.28;2.20;;;23.50;99.90;;;;;;5121526;27;20047;-77
2023/08/27 09:58:01;;;;;;;2.70;1.85;;;23.60;99.90;;;;;;5105486;28;20031;-78
2023/08/27 10:00:29;;;;;;;2.00;1.77;;;23.70;99.90;;;;;;5106721;28;20051;-79
2023/08/27 10:02:56;;;;;;;3.97;2.00;;;23.80;99.90;;;;;;5123978;28;20075;-79
2023/08/27 10:05:31;;;;;;;4.03;1.70;;;23.80;99.90;;;;;;5110426;28;20047;-76
2023/08/27 10:08:02;;;;;;;2.17;1.90;;;23.80;99.90;;;;;;5102307;28;20674;-77
2023/08/27 10:10:29;;;;;;;3.13;1.67;;;24.00;99.90;;;;;;5126945;28;20039;-78
2023/08/27 10:12:56;;;;;;;2.33;1.75;;;24.40;99.90;;;;;;5106894;28;20710;-79
2023/08/27 10:15:41;;;;;;;1.98;1.45;;;24.40;99.90;;;;;;5126094;28;20356;-81
2023/08/27 10:18:16;;;;;;;1.48;1.23;;;24.60;99.90;;;;;;5100914;28;20043;-81
2023/08/27 10:20:44;;;;;;;;;;;24.80;99.90;;;;;;5103381;28;20040;-81
2023/08/27 10:23:11;;;;;;;1.40;1.13;;;25.10;99.90;;;;;;5102052;28;19915;-82
2023/08/27 10:25:38;;;;;;;2.55;1.40;;;25.20;99.90;;;;;;5093711;28;20043;-82
2023/08/27 10:28:12;;;;;;;1.60;1.20;;;25.20;99.90;;;;;;5088604;28;20035;-81
2023/08/27 10:30:38;;;;;;;1.83;1.20;;;25.20;99.90;;;;;;5110685;28;20416;-82
2023/08/27 10:33:05;;;;;;;3.38;1.67;;;25.30;99.90;;;;;;5104356;28;20027;-82
2023/08/27 10:35:48;;;;;;;1.23;1.13;;;24.80;99.90;;;;;;5075697;28;20059;-81
2023/08/27 10:38:21;;;;;;;2.08;1.35;;;24.60;99.90;;;;;;5109118;28;20100;-82
2023/08/27 10:40:47;;;;;;;1.48;1.33;;;24.60;99.90;;;;;;5107877;28;20042;-83
2023/08/27 10:43:18;;;;;;;1.70;1.33;;;25.00;99.90;;;;;;5109017;28;20078;-81
2023/08/27 10:45:44;;;;;;;1.63;1.40;;;24.80;99.90;;;;;;5107608;28;20515;-83
2023/08/27 10:48:19;;;;;;;1.90;1.15;;;25.00;99.90;;;;;;5106899;28;20374;-85
2023/08/27 10:50:48;;;;;;;2.40;1.42;;;24.70;99.90;;;;;;5108373;28;20043;-84
2023/08/27 10:53:15;;;;;;;1.75;1.30;;;24.30;99.90;;;;;;5107579;28;20045;-82
2023/08/27 10:55:43;;;;;;;2.83;1.50;;;24.50;99.90;;;;;;5123574;28;20126;-81
2023/08/27 10:58:21;;;;;;;2.63;1.50;;;24.50;99.90;;;;;;5110965;28;20114;-80
2023/08/27 11:01:06;;;;;;;1.90;1.13;;;24.20;99.90;;;;;;5108318;28;20039;-79
2023/08/27 11:03:58;;;;;;;1.67;1.13;;;23.80;99.90;;;;;;5103774;28;20040;-80
2023/08/27 11:06:44;;;;;;;1.42;1.33;;;23.70;99.90;;;;;;5080883;28;20062;-81
2023/08/27 11:09:31;;;;;;;2.38;1.63;;;23.40;99.90;;;;;;5104418;27;20027;-82
2023/08/27 11:12:04;;;;;;;2.65;1.50;;;23.20;99.90;;;;;;5100518;27;20032;-83
2023/08/27 11:14:39;;;;;;;1.60;1.38;;;23.10;99.90;;;;;;5105290;28;20127;-83
2023/08/27 11:17:05;;;;;;;1.92;1.60;;;23.10;99.90;;;;;;5090234;27;20043;-82
2023/08/27 11:19:38;;;;;;;3.08;2.10;;;22.80;99.90;;;;;;5106796;27;20724;-82
2023/08/27 11:22:05;;;;;;;5.97;2.50;;;22.80;99.90;;;;;;5094136;27;20436;-83
2023/08/27 11:24:31;;;;;;;2.10;1.70;;;22.90;99.90;;;;;;5128668;27;20941;-85
2023/08/27 11:27:00;;;;;;;2.90;2.00;;;22.80;99.90;;;;;;5131158;27;20601;-84
2023/08/27 11:29:27;;;;;;;2.85;1.83;;;22.80;99.90;;;;;;5128453;27;20031;-83
2023/08/27 11:31:53;;;;;;;2.30;1.73;;;23.00;99.90;;;;;;5106996;27;20112;-84
2023/08/27 11:34:19;;;;;;;2.67;1.75;;;23.00;99.90;;;;;;5112418;27;20027;-82
2023/08/27 11:36:54;;;;;;;2.10;1.70;;;23.00;99.90;;;;;;5098127;27;20039;-83
2023/08/27 11:39:20;;;;;;;3.03;2.05;;;23.10;99.90;;;;;;5091362;27;20031;-82
2023/08/27 11:41:46;;;;;;;2.83;1.98;;;23.50;99.90;;;;;;5087282;28;20040;-83
2023/08/27 11:44:13;;;;;;;4.15;2.28;;;24.10;99.90;;;;;;5106988;27;20043;-84
2023/08/27 11:46:41;;;;;;;2.85;1.95;;;24.50;99.90;;;;;;5114260;27;20074;-81
2023/08/27 11:49:08;;;;;;;3.28;2.10;;;24.40;99.90;;;;;;5088390;27;20055;-84
2023/08/27 11:51:34;;;;;;;4.70;2.30;;;24.30;99.90;;;;;;5095072;27;20031;-83
2023/08/27 11:54:10;;;;;;;2.90;2.38;;;24.00;99.90;;;;;;5091684;27;20121;-84
2023/08/27 11:56:39;;;;;;;3.05;2.20;;;24.00;99.90;;;;;;5113622;27;20100;-82
2023/08/27 11:59:06;;;;;;;3.83;2.20;;;23.90;99.90;;;;;;5103106;27;20039;-83
2023/08/27 12:01:33;;;;;;;3.63;2.42;;;23.80;99.90;;;;;;5113227;27;20035;-84
2023/08/27 12:03:59;;;;;;;4.57;2.05;;;23.70;99.90;;;;;;5106893;28;20028;-82
2023/08/27 12:06:26;;;;;;;4.88;2.90;;;23.60;99.90;;;;;;5102900;27;20372;-83
2023/08/27 12:08:53;;;;;;;6.53;3.42;;;23.20;99.90;;;;;;5088079;27;20039;-80
2023/08/27 12:11:27;;;;;;;8.05;2.70;;;22.50;99.90;;;;;;5111420;27;20046;-81
2023/08/27 12:14:00;;;;;;;5.18;2.67;;;22.50;99.90;;;;;;5111712;27;20035;-80
2023/08/27 12:16:34;;;;;;;4.40;2.30;;;22.20;99.90;;;;;;5111096;27;20039;-82
2023/08/27 12:19:08;;;;;;;3.67;2.80;;;22.00;99.90;;;;;;5127315;27;20042;-81
2023/08/27 12:21:54;;;;;;;;;;;21.80;99.90;;;;;;5124193;27;20079;-80
2023/08/27 12:24:41;;;;;;;1.73;1.35;;;21.60;99.90;;;;;;5088231;27;19922;-82
2023/08/27 12:27:09;;;;;;;2.95;1.33;;;21.60;99.90;;;;;;5120610;27;20585;-81
2023/08/27 12:29:39;;;;;;;1.60;1.35;;;21.60;99.90;;;;;;5109022;27;20404;-82
2023/08/27 12:32:13;;;;;;;2.22;1.60;;;21.40;99.90;;;;;;5091640;28;20132;-82
2023/08/27 12:34:43;;;;;;;2.00;1.20;;;21.20;99.90;;;;;;5128630;27;20126;-82
2023/08/27 12:37:11;;;;;;;1.58;1.20;;;21.10;99.90;;;;;;5112302;27;20457;-81
2023/08/27 12:39:38;;;;;;;1.67;1.02;;;20.80;99.90;;;;;;5123587;27;20058;-81
2023/08/27 12:42:08;;;;;;;1.52;1.00;;;20.70;99.90;;;;;;5120138;27;20444;-81
2023/08/27 12:44:34;;;;;;;1.33;1.10;;;20.60;99.90;;;;;;5122063;27;20038;-80
2023/08/27 12:47:01;;;;;;;1.10;1.00;;;20.60;99.90;;;;;;5085509;27;20398;-81
2023/08/27 12:49:28;;;;;;;1.52;1.30;;;20.50;99.90;;;;;;5102550;27;20428;-80
2023/08/27 12:51:54;;;;;;;1.27;0.98;;;20.50;99.90;;;;;;5090310;27;20122;-79